Time;durP1;ratioP1;P1;durP2;ratioP2;P2;SDS_P1;SDS_P2;PMS_P1;PMS_P2;Temp;Humidity;BMP_temperature;BMP_pressure;BME280_temperature;BME280_humidity;BME280_pressure;Samples;Min_cycle;Max_cycle;Signal;HPM_P1;HPM_P2
2023/03/06 00:01:01;;;;;;;12.57;11.30;;;;;20.30;99712.00;;;;2055724;28;20238;-86
2023/03/06 00:02:01;;;;;;;13.68;12.23;;;;;20.30;99703.00;;;;2056070;28;20769;-86
2023/03/06 00:03:02;;;;;;;12.97;11.57;;;;;20.30;99709.00;;;;2055738;28;20215;-86
2023/03/06 00:04:02;;;;;;;14.47;12.67;;;;;20.30;99709.00;;;;2055793;28;20266;-86
2023/03/06 00:05:03;;;;;;;13.30;11.90;;;;;20.30;99704.00;;;;2055964;28;20729;-85
2023/03/06 00:06:03;;;;;;;14.90;12.20;;;;;20.30;99701.00;;;;2055743;28;20218;-87
2023/03/06 00:07:03;;;;;;;11.77;10.57;;;;;20.30;99698.00;;;;2055650;28;20742;-86
2023/03/06 00:08:04;;;;;;;13.80;11.50;;;;;20.30;99701.00;;;;2055731;28;20300;-88
2023/03/06 00:09:04;;;;;;;13.07;11.40;;;;;20.30;99696.00;;;;2055871;28;20215;-87
2023/03/06 00:10:05;;;;;;;13.13;10.60;;;;;20.30;99703.00;;;;2055849;28;20242;-87
2023/03/06 00:11:05;;;;;;;12.10;10.33;;;;;20.30;99701.00;;;;2055815;28;20302;-87
2023/03/06 00:12:06;;;;;;;12.13;10.93;;;;;20.30;99698.00;;;;2055699;28;20481;-87
2023/03/06 00:13:07;;;;;;;12.30;10.47;;;;;20.30;99701.00;;;;2055784;28;20211;-85
2023/03/06 00:14:08;;;;;;;13.07;10.50;;;;;20.30;99705.00;;;;2055858;28;20298;-87
2023/03/06 00:15:09;;;;;;;12.47;10.90;;;;;20.20;99688.00;;;;2055869;28;20215;-86
2023/03/06 00:16:09;;;;;;;11.50;10.30;;;;;20.20;99695.00;;;;2055480;28;20235;-87
2023/03/06 00:17:09;;;;;;;10.73;9.57;;;;;20.20;99691.00;;;;2055737;28;20470;-87
2023/03/06 00:18:10;;;;;;;11.23;10.03;;;;;20.20;99686.00;;;;2055348;28;20231;-87
2023/03/06 00:19:10;;;;;;;12.80;10.37;;;;;20.20;99694.00;;;;2055871;28;20219;-88
2023/03/06 00:20:11;;;;;;;12.40;10.77;;;;;20.20;99686.00;;;;2056010;28;20223;-87
2023/03/06 00:21:11;;;;;;;10.93;9.70;;;;;20.20;99689.00;;;;2055567;28;20226;-85
2023/03/06 00:22:12;;;;;;;11.07;9.83;;;;;20.20;99688.00;;;;2055786;28;20222;-87
2023/03/06 00:23:12;;;;;;;11.03;9.93;;;;;20.20;99686.00;;;;2054980;28;20227;-86
2023/03/06 00:24:12;;;;;;;9.53;8.70;;;;;20.20;99687.00;;;;2056423;28;20221;-87
2023/03/06 00:25:15;;;;;;;10.13;9.17;;;;;20.20;99676.00;;;;2057497;28;20219;-87
2023/03/06 00:26:15;;;;;;;9.75;8.75;;;;;20.20;99686.00;;;;2057318;28;20701;-87
2023/03/06 00:27:15;;;;;;;9.67;8.73;;;;;20.20;99684.00;;;;2057444;28;20218;-87
2023/03/06 00:28:16;;;;;;;10.20;8.87;;;;;20.20;99682.00;;;;2057034;28;20211;-87
2023/03/06 00:29:17;;;;;;;12.13;9.10;;;;;20.20;99681.00;;;;2057302;28;20230;-87
2023/03/06 00:30:19;;;;;;;10.00;9.00;;;;;20.20;99677.00;;;;2056828;28;20455;-86
2023/03/06 00:31:19;;;;;;;9.75;8.75;;;;;20.20;99677.00;;;;2056869;28;20254;-86
2023/03/06 00:32:20;;;;;;;10.03;8.60;;;;;20.20;99678.00;;;;2055907;28;20583;-74
2023/03/06 00:33:20;;;;;;;9.80;8.83;;;;;20.20;99674.00;;;;2057381;28;20220;-82
2023/03/06 00:34:20;;;;;;;9.40;8.20;;;;;20.10;99672.00;;;;2057266;28;20238;-85
2023/03/06 00:35:21;;;;;;;9.80;8.30;;;;;20.10;99673.00;;;;2056812;28;20215;-86
2023/03/06 00:36:21;;;;;;;10.20;9.10;;;;;20.20;99668.00;;;;2056708;28;20246;-86
2023/03/06 00:37:22;;;;;;;9.43;8.50;;;;;20.20;99669.00;;;;2057336;28;20218;-87
2023/03/06 00:38:22;;;;;;;9.10;8.07;;;;;20.10;99675.00;;;;2057187;28;20235;-86
2023/03/06 00:39:23;;;;;;;9.00;8.10;;;;;20.10;99669.00;;;;2057144;28;20991;-86
2023/03/06 00:40:23;;;;;;;9.43;8.47;;;;;20.10;99672.00;;;;2057324;28;20203;-86
2023/03/06 00:41:23;;;;;;;7.43;6.73;;;;;20.10;99670.00;;;;2057180;28;20219;-87
2023/03/06 00:42:24;;;;;;;8.87;7.97;;;;;20.10;99668.00;;;;2056699;28;20225;-86
2023/03/06 00:43:24;;;;;;;8.93;8.03;;;;;20.10;99665.00;;;;2057348;28;20227;-87
2023/03/06 00:44:25;;;;;;;10.27;8.17;;;;;20.10;99663.00;;;;2057358;28;20207;-86
2023/03/06 00:45:25;;;;;;;8.90;8.00;;;;;20.10;99661.00;;;;2057137;28;20246;-87
2023/03/06 00:46:25;;;;;;;8.00;7.20;;;;;20.10;99664.00;;;;2057361;28;20208;-86
2023/03/06 00:47:26;;;;;;;7.93;7.13;;;;;20.10;99660.00;;;;2056499;28;20265;-86
2023/03/06 00:48:26;;;;;;;8.70;7.80;;;;;20.10;99655.00;;;;2056162;28;20208;-86
2023/03/06 00:49:27;;;;;;;8.73;7.80;;;;;20.10;99661.00;;;;2056707;28;20223;-86
2023/03/06 00:50:27;;;;;;;8.27;7.50;;;;;20.10;99658.00;;;;2056191;28;20204;-86
2023/03/06 00:51:27;;;;;;;8.07;7.27;;;;;20.10;99653.00;;;;2057149;28;20331;-85
2023/03/06 00:52:28;;;;;;;7.97;7.23;;;;;20.10;99654.00;;;;2057037;28;20250;-85
2023/03/06 00:53:28;;;;;;;8.17;7.40;;;;;20.10;99649.00;;;;2057183;28;20223;-85
2023/03/06 00:54:28;;;;;;;9.37;7.60;;;;;20.00;99647.00;;;;2057125;28;20204;-85
2023/03/06 00:55:29;;;;;;;7.17;6.57;;;;;20.00;99655.00;;;;2057144;28;20236;-85
2023/03/06 00:56:30;;;;;;;7.40;6.68;;;;;20.00;99648.00;;;;2056891;28;20207;-86
2023/03/06 00:57:30;;;;;;;8.63;6.97;;;;;20.00;99647.00;;;;2056982;28;20250;-85
2023/03/06 00:58:30;;;;;;;6.90;6.20;;;;;20.00;99647.00;;;;2056763;28;20259;-86
2023/03/06 00:59:31;;;;;;;7.40;6.70;;;;;20.00;99649.00;;;;2056239;28;20220;-84
2023/03/06 01:00:31;;;;;;;7.30;6.60;;;;;20.00;99643.00;;;;2056518;28;20219;-85
2023/03/06 01:01:31;;;;;;;8.57;6.80;;;;;20.00;99651.00;;;;2057007;28;20215;-85
2023/03/06 01:02:32;;;;;;;7.80;7.00;;;;;20.00;99649.00;;;;2057023;28;20561;-85
2023/03/06 01:03:32;;;;;;;7.30;6.60;;;;;20.00;99648.00;;;;2057131;28;20708;-86
2023/03/06 01:04:32;;;;;;;7.43;6.73;;;;;20.00;99649.00;;;;2056363;28;20212;-86
2023/03/06 01:05:34;;;;;;;7.87;7.07;;;;;20.00;99646.00;;;;2056447;28;20210;-85
2023/03/06 01:06:34;;;;;;;8.05;6.80;;;;;20.00;99633.00;;;;2057166;28;20227;-85
2023/03/06 01:07:35;;;;;;;7.67;6.90;;;;;20.00;99641.00;;;;2056874;28;20675;-85
2023/03/06 01:08:36;;;;;;;7.18;6.47;;;;;20.00;99645.00;;;;2056686;28;20200;-85
2023/03/06 01:09:36;;;;;;;7.87;7.17;;;;;20.00;99637.00;;;;2057069;28;20207;-85
2023/03/06 01:10:37;;;;;;;8.20;7.20;;;;;20.00;99633.00;;;;2057059;28;20221;-85
2023/03/06 01:11:38;;;;;;;6.72;6.13;;;;;20.00;99637.00;;;;2056992;28;20215;-86
2023/03/06 01:12:38;;;;;;;7.20;6.50;;;;;20.00;99637.00;;;;2056899;28;20274;-85
2023/03/06 01:13:38;;;;;;;6.77;6.10;;;;;20.00;99639.00;;;;2056872;28;20212;-85
2023/03/06 01:14:39;;;;;;;7.13;6.43;;;;;20.00;99639.00;;;;2057123;28;20218;-85
2023/03/06 01:15:39;;;;;;;7.50;6.70;;;;;19.90;99634.00;;;;2057072;28;21220;-86
2023/03/06 01:16:39;;;;;;;8.20;7.00;;;;;19.90;99630.00;;;;2057127;28;20766;-85
2023/03/06 01:17:40;;;;;;;7.60;6.90;;;;;19.90;99626.00;;;;2056958;28;20699;-86
2023/03/06 01:18:40;;;;;;;7.00;6.30;;;;;19.90;99623.00;;;;2056659;28;20707;-85
2023/03/06 01:19:40;;;;;;;6.97;6.33;;;;;19.90;99631.00;;;;2057011;28;20216;-86
2023/03/06 01:20:41;;;;;;;6.70;6.10;;;;;19.90;99627.00;;;;2056908;28;20679;-86
2023/03/06 01:21:41;;;;;;;6.40;5.80;;;;;19.90;99629.00;;;;2056956;28;20214;-86
2023/03/06 01:22:41;;;;;;;6.87;6.27;;;;;19.90;99630.00;;;;2056898;28;20746;-86
2023/03/06 01:23:42;;;;;;;7.10;6.40;;;;;19.90;99626.00;;;;2056900;28;20286;-86
2023/03/06 01:24:42;;;;;;;6.60;6.00;;;;;19.90;99625.00;;;;2056422;28;20555;-86
2023/03/06 01:25:42;;;;;;;6.00;5.40;;;;;19.90;99622.00;;;;2056906;28;20290;-86
2023/03/06 01:26:43;;;;;;;6.73;6.13;;;;;19.90;99623.00;;;;2056931;28;20216;-86
2023/03/06 01:27:43;;;;;;;6.83;5.73;;;;;19.90;99616.00;;;;2056820;28;20222;-86
2023/03/06 01:28:43;;;;;;;5.83;5.23;;;;;19.90;99617.00;;;;2056743;28;20215;-86
2023/03/06 01:29:44;;;;;;;6.37;5.70;;;;;19.90;99614.00;;;;2056715;28;20222;-86
2023/03/06 01:30:44;;;;;;;5.97;5.37;;;;;19.90;99625.00;;;;2056976;28;20663;-86
2023/03/06 01:31:44;;;;;;;6.30;5.70;;;;;19.90;99616.00;;;;2057036;28;20243;-85
2023/03/06 01:32:45;;;;;;;6.53;5.93;;;;;19.90;99616.00;;;;2056941;28;20215;-86
2023/03/06 01:33:45;;;;;;;6.40;5.80;;;;;19.90;99610.00;;;;2056825;28;20235;-86
2023/03/06 01:34:45;;;;;;;7.03;5.97;;;;;19.90;99614.00;;;;2056868;28;20262;-85
2023/03/06 01:35:46;;;;;;;5.83;5.33;;;;;19.90;99615.00;;;;2056018;28;20216;-86
2023/03/06 01:36:46;;;;;;;5.73;5.23;;;;;19.90;99610.00;;;;2056888;28;20211;-85
2023/03/06 01:37:46;;;;;;;5.90;5.37;;;;;19.90;99610.00;;;;2056754;28;20216;-85
2023/03/06 01:38:47;;;;;;;6.73;6.13;;;;;19.90;99609.00;;;;2056564;28;20212;-85
2023/03/06 01:39:47;;;;;;;5.97;5.37;;;;;19.80;99616.00;;;;2056878;28;20253;-86
2023/03/06 01:40:47;;;;;;;5.77;5.27;;;;;19.80;99612.00;;;;2056618;28;20231;-86
2023/03/06 01:41:48;;;;;;;5.90;5.30;;;;;19.80;99609.00;;;;2056815;28;20694;-86
2023/03/06 01:42:48;;;;;;;6.90;6.30;;;;;19.80;99606.00;;;;2056299;28;20215;-86
2023/03/06 01:43:48;;;;;;;5.77;5.27;;;;;19.80;99609.00;;;;2056173;28;20295;-86
2023/03/06 01:44:57;;;;;;;5.50;5.00;;;;;19.80;99600.00;;;;2056188;28;20215;-86
2023/03/06 01:46:25;;;;;;;5.90;5.32;;;;;19.80;99603.00;;;;2056771;28;20686;-86
2023/03/06 01:47:25;;;;;;;5.53;5.00;;;;;19.50;99603.00;;;;2056741;28;20899;-85
2023/03/06 01:48:26;;;;;;;5.50;5.00;;;;;19.80;99596.00;;;;2056394;28;20204;-86
2023/03/06 01:49:29;;;;;;;5.40;4.90;;;;;19.80;99602.00;;;;2056275;28;20208;-87
2023/03/06 01:50:29;;;;;;;7.30;5.45;;;;;19.80;99603.00;;;;2056279;28;20705;-88
2023/03/06 01:51:37;;;;;;;6.23;5.70;;;;;19.80;99589.00;;;;2056215;28;20210;-87
2023/03/06 01:52:56;;;;;;;5.97;5.43;;;;;19.80;99591.00;;;;2056199;28;20208;-86
2023/03/06 01:53:57;;;;;;;5.78;5.28;;;;;19.80;99592.00;;;;2047570;29;20232;-87
2023/03/06 01:55:04;;;;;;;5.90;5.30;;;;;19.80;99591.00;;;;2040316;29;20220;-87
2023/03/06 01:56:05;;;;;;;7.03;6.35;;;;;19.80;99588.00;;;;2056567;28;20518;-87
2023/03/06 01:57:13;;;;;;;6.57;5.93;;;;;19.80;99594.00;;;;2055852;28;20212;-87
2023/03/06 01:58:15;;;;;;;7.07;5.90;;;;;19.80;99593.00;;;;2048662;28;20208;-87
2023/03/06 01:59:15;;;;;;;6.03;5.43;;;;;19.80;99588.00;;;;2048803;28;20243;-87
2023/03/06 02:00:18;;;;;;;6.80;6.20;;;;;19.80;99581.00;;;;2048193;29;20212;-87
2023/03/06 02:01:19;;;;;;;6.13;5.47;;;;;19.80;99596.00;;;;2048493;28;20222;-86
2023/03/06 02:02:19;;;;;;;5.87;5.37;;;;;19.80;99573.00;;;;2048082;28;20226;-87
2023/03/06 02:03:21;;;;;;;6.23;5.63;;;;;19.80;99593.00;;;;2047959;29;20224;-87
2023/03/06 02:04:21;;;;;;;6.40;5.85;;;;;19.80;99585.00;;;;2055966;28;20610;-87
2023/03/06 02:05:22;;;;;;;5.90;5.40;;;;;19.70;99582.00;;;;2056183;28;20215;-87
2023/03/06 02:06:22;;;;;;;6.67;6.10;;;;;19.70;99584.00;;;;2056105;28;20223;-87
2023/03/06 02:07:22;;;;;;;6.20;5.70;;;;;19.70;99581.00;;;;2056073;28;20235;-87
2023/03/06 02:08:23;;;;;;;6.53;5.93;;;;;19.70;99582.00;;;;2055733;28;20228;-86
2023/03/06 02:09:28;;;;;;;5.57;5.10;;;;;19.80;99585.00;;;;2056017;28;20216;-86
2023/03/06 02:10:29;;;;;;;5.88;5.38;;;;;19.70;99581.00;;;;2048652;28;20882;-86
2023/03/06 02:11:29;;;;;;;6.13;5.53;;;;;19.70;99579.00;;;;2056110;28;20231;-86
2023/03/06 02:12:29;;;;;;;6.00;5.50;;;;;19.70;99564.00;;;;2056532;28;20207;-87
2023/03/06 02:13:30;;;;;;;6.00;5.43;;;;;19.70;99568.00;;;;2056018;28;20223;-87
2023/03/06 02:14:30;;;;;;;5.60;5.10;;;;;19.70;99575.00;;;;2055999;28;20211;-88
2023/03/06 02:15:30;;;;;;;6.20;5.70;;;;;19.70;99579.00;;;;2056105;28;20215;-87
2023/03/06 02:16:31;;;;;;;5.60;5.10;;;;;19.70;99576.00;;;;2047913;29;20216;-87
2023/03/06 02:17:31;;;;;;;5.23;4.83;;;;;19.70;99557.00;;;;2056118;28;20220;-87
2023/03/06 02:18:32;;;;;;;6.00;5.50;;;;;19.70;99566.00;;;;2055586;28;20216;-87
2023/03/06 02:19:44;;;;;;;5.83;5.33;;;;;19.70;99567.00;;;;2056093;28;20239;-86
2023/03/06 02:20:47;;;;;;;5.65;5.15;;;;;19.70;99563.00;;;;2049502;28;20223;-86
2023/03/06 02:21:47;;;;;;;6.00;5.38;;;;;19.70;99577.00;;;;2056623;28;20605;-87
2023/03/06 02:23:03;;;;;;;6.03;5.50;;;;;19.70;99580.00;;;;2055022;28;20220;-86
2023/03/06 02:24:28;;;;;;;6.53;5.93;;;;;19.70;99573.00;;;;2056113;28;20230;-87
2023/03/06 02:25:39;;;;;;;7.07;5.75;;;;;19.70;99574.00;;;;2055605;28;20220;-87
2023/03/06 02:26:40;;;;;;;6.55;5.88;;;;;19.70;99566.00;;;;2055799;28;20727;-87
2023/03/06 02:27:40;;;;;;;6.60;5.93;;;;;19.60;99572.00;;;;2055154;28;20397;-87
2023/03/06 02:28:40;;;;;;;6.20;5.17;;;;;19.70;99570.00;;;;2055768;28;20212;-88
2023/03/06 02:29:42;;;;;;;5.83;5.33;;;;;19.60;99564.00;;;;2055920;28;20223;-87
2023/03/06 02:30:43;;;;;;;6.75;6.15;;;;;19.70;99565.00;;;;2055792;28;20214;-87
2023/03/06 02:31:43;;;;;;;6.00;5.50;;;;;19.60;99556.00;;;;2055847;28;20218;-87
2023/03/06 02:32:43;;;;;;;6.20;5.70;;;;;19.70;99560.00;;;;2055794;28;20222;-88
2023/03/06 02:33:44;;;;;;;5.90;5.40;;;;;19.70;99552.00;;;;2055528;28;20219;-87
2023/03/06 02:34:50;;;;;;;6.23;5.70;;;;;19.70;99560.00;;;;2056718;28;20285;-88
2023/03/06 02:35:58;;;;;;;6.45;5.95;;;;;19.60;99550.00;;;;2056654;28;20239;-88
2023/03/06 02:37:03;;;;;;;6.47;5.88;;;;;19.60;99547.00;;;;2046693;28;20207;-87
2023/03/06 02:38:08;;;;;;;7.22;6.53;;;;;19.60;99550.00;;;;2055776;28;20211;-86
2023/03/06 02:39:08;;;;;;;6.72;6.13;;;;;19.60;99548.00;;;;2055479;28;20231;-87
2023/03/06 02:40:11;;;;;;;6.30;5.80;;;;;19.60;99549.00;;;;2055998;28;20235;-88
2023/03/06 02:41:11;;;;;;;6.85;6.30;;;;;19.60;99550.00;;;;2047978;28;20228;-87
2023/03/06 02:42:22;;;;;;;7.27;6.63;;;;;19.60;99546.00;;;;2040056;28;20248;-87
2023/03/06 02:43:24;;;;;;;7.32;6.63;;;;;19.70;99541.00;;;;2047878;29;20216;-87
2023/03/06 02:44:25;;;;;;;7.93;7.22;;;;;19.70;99537.00;;;;2041094;28;20209;-87
2023/03/06 02:45:36;;;;;;;7.03;6.43;;;;;19.60;99553.00;;;;2047998;29;20208;-88
2023/03/06 02:46:36;;;;;;;7.10;6.50;;;;;19.60;99540.00;;;;2049343;28;20262;-87
2023/03/06 02:47:36;;;;;;;7.67;6.97;;;;;19.60;99540.00;;;;2054772;28;20270;-87
2023/03/06 02:48:37;;;;;;;7.47;6.77;;;;;19.60;99543.00;;;;2056188;28;20207;-88
2023/03/06 02:49:37;;;;;;;7.77;7.07;;;;;19.60;99547.00;;;;2056635;28;20208;-88
2023/03/06 02:50:38;;;;;;;8.17;7.47;;;;;19.60;99548.00;;;;2056525;28;20215;-88
2023/03/06 02:51:38;;;;;;;8.30;7.60;;;;;19.60;99544.00;;;;2055902;28;20239;-88
2023/03/06 02:52:39;;;;;;;8.37;7.67;;;;;19.60;99556.00;;;;2047652;28;20236;-88
2023/03/06 02:53:39;;;;;;;7.67;6.97;;;;;19.60;99540.00;;;;2055665;28;20656;-88
2023/03/06 02:54:39;;;;;;;8.10;7.30;;;;;19.50;99552.00;;;;2056388;28;20548;-88
2023/03/06 02:55:40;;;;;;;8.57;7.83;;;;;19.60;99535.00;;;;2056524;28;20574;-88
2023/03/06 02:56:40;;;;;;;7.87;7.17;;;;;19.60;99537.00;;;;2056501;28;20212;-88
2023/03/06 02:57:40;;;;;;;7.80;7.10;;;;;19.60;99541.00;;;;2057182;28;20225;-88
2023/03/06 02:58:41;;;;;;;8.20;7.50;;;;;19.60;99535.00;;;;2047459;29;20307;-87
2023/03/06 02:59:41;;;;;;;8.40;7.67;;;;;19.60;99532.00;;;;2047858;29;20229;-87
2023/03/06 03:00:41;;;;;;;9.10;8.40;;;;;19.60;99535.00;;;;2056357;28;20211;-88
2023/03/06 03:01:42;;;;;;;8.80;8.00;;;;;19.60;99528.00;;;;2056564;28;20683;-87
2023/03/06 03:02:42;;;;;;;8.13;7.33;;;;;19.50;99533.00;;;;2056427;28;20698;-88
2023/03/06 03:03:42;;;;;;;8.33;7.63;;;;;19.50;99525.00;;;;2055781;28;20302;-88
2023/03/06 03:04:43;;;;;;;9.37;8.47;;;;;19.50;99531.00;;;;2055471;28;20219;-88
2023/03/06 03:05:43;;;;;;;9.00;8.20;;;;;19.50;99532.00;;;;2056439;28;20212;-88
2023/03/06 03:06:43;;;;;;;8.40;7.70;;;;;19.50;99528.00;;;;2056444;28;20293;-88
2023/03/06 03:07:44;;;;;;;9.10;8.20;;;;;19.50;99535.00;;;;2056228;28;20211;-88
2023/03/06 03:08:44;;;;;;;8.43;7.73;;;;;19.50;99533.00;;;;2056006;28;20246;-88
2023/03/06 03:09:44;;;;;;;8.33;7.63;;;;;19.50;99526.00;;;;2056269;28;20212;-88
2023/03/06 03:10:45;;;;;;;8.50;7.80;;;;;19.50;99533.00;;;;2056285;28;20215;-88
2023/03/06 03:11:45;;;;;;;8.73;7.93;;;;;19.50;99531.00;;;;2056339;28;20215;-88
2023/03/06 03:12:45;;;;;;;8.93;8.13;;;;;19.50;99526.00;;;;2056313;28;20242;-88
2023/03/06 03:13:46;;;;;;;8.70;7.90;;;;;19.50;99523.00;;;;2056335;28;20227;-87
2023/03/06 03:14:46;;;;;;;9.03;8.30;;;;;19.50;99525.00;;;;2055816;28;20589;-87
2023/03/06 03:16:05;;;;;;;9.23;8.43;;;;;19.50;99526.00;;;;2055926;28;20569;-87
2023/03/06 03:17:06;;;;;;;9.07;8.27;;;;;19.50;99527.00;;;;2055278;28;20301;-87
2023/03/06 03:18:06;;;;;;;8.40;7.70;;;;;19.50;99529.00;;;;2055401;28;20707;-87
2023/03/06 03:19:06;;;;;;;8.43;7.73;;;;;19.50;99527.00;;;;2056125;28;20576;-86
2023/03/06 03:20:12;;;;;;;8.80;8.00;;;;;19.50;99522.00;;;;2056374;28;20714;-86
2023/03/06 03:21:13;;;;;;;9.60;8.73;;;;;19.50;99522.00;;;;2055586;28;20218;-86
2023/03/06 03:22:13;;;;;;;8.90;8.10;;;;;19.50;99524.00;;;;2055673;28;20216;-87
2023/03/06 03:23:13;;;;;;;9.43;8.63;;;;;19.50;99519.00;;;;2056284;28;20234;-87
2023/03/06 03:24:15;;;;;;;9.60;8.60;;;;;19.50;99522.00;;;;2056339;28;20238;-86
2023/03/06 03:25:15;;;;;;;10.45;9.50;;;;;19.50;99521.00;;;;2056242;28;20215;-87
2023/03/06 03:26:17;;;;;;;8.70;7.90;;;;;19.50;99521.00;;;;2056235;28;20211;-86
2023/03/06 03:27:18;;;;;;;9.18;8.38;;;;;19.40;99514.00;;;;2055846;28;20207;-87
2023/03/06 03:28:18;;;;;;;9.23;8.53;;;;;19.50;99511.00;;;;2055926;28;20226;-87
2023/03/06 03:29:19;;;;;;;9.43;8.67;;;;;19.40;99517.00;;;;2055424;28;20224;-87
2023/03/06 03:30:19;;;;;;;8.77;7.97;;;;;19.50;99512.00;;;;2055653;28;20216;-87
2023/03/06 03:31:19;;;;;;;9.37;8.37;;;;;19.50;99516.00;;;;2056142;28;20219;-88
2023/03/06 03:32:20;;;;;;;9.23;8.43;;;;;19.40;99508.00;;;;2055999;28;20903;-88
2023/03/06 03:33:20;;;;;;;9.00;8.20;;;;;19.50;99506.00;;;;2055989;28;20298;-87
2023/03/06 03:34:20;;;;;;;9.93;9.03;;;;;19.40;99510.00;;;;2056181;28;20219;-87
2023/03/06 03:35:21;;;;;;;9.60;8.80;;;;;19.40;99511.00;;;;2056184;28;20250;-88
2023/03/06 03:36:21;;;;;;;9.37;8.47;;;;;19.40;99506.00;;;;2056088;28;20220;-87
2023/03/06 03:37:22;;;;;;;8.67;7.87;;;;;19.40;99509.00;;;;2055199;28;20281;-79
2023/03/06 03:38:22;;;;;;;9.40;8.60;;;;;19.40;99507.00;;;;2055076;28;20223;-86
2023/03/06 03:39:22;;;;;;;9.53;8.63;;;;;19.40;99512.00;;;;2056007;28;20291;-87
2023/03/06 03:40:23;;;;;;;9.60;8.70;;;;;19.40;99508.00;;;;2056202;28;20222;-87
2023/03/06 03:41:23;;;;;;;9.43;8.63;;;;;19.40;99509.00;;;;2055844;28;20211;-87
2023/03/06 03:42:23;;;;;;;9.00;8.27;;;;;19.40;99506.00;;;;2055866;28;20294;-87
2023/03/06 03:43:24;;;;;;;9.40;8.50;;;;;19.40;99502.00;;;;2056079;28;20219;-88
2023/03/06 03:44:24;;;;;;;9.20;8.40;;;;;19.40;99499.00;;;;2056066;28;20235;-87
2023/03/06 03:45:24;;;;;;;9.50;8.70;;;;;19.40;99505.00;;;;2056140;28;20215;-88
2023/03/06 03:46:25;;;;;;;9.00;8.20;;;;;19.40;99501.00;;;;2056158;28;20245;-88
2023/03/06 03:47:25;;;;;;;8.70;7.90;;;;;19.40;99508.00;;;;2056098;28;20290;-87
2023/03/06 03:48:26;;;;;;;9.83;8.83;;;;;19.40;99500.00;;;;2055686;28;20240;-88
2023/03/06 03:49:26;;;;;;;9.33;8.50;;;;;19.40;99499.00;;;;2055323;28;20216;-88
2023/03/06 03:50:26;;;;;;;8.97;8.17;;;;;19.40;99500.00;;;;2055404;28;20298;-86
2023/03/06 03:51:27;;;;;;;8.17;7.47;;;;;19.40;99511.00;;;;2056088;28;20231;-86
2023/03/06 03:52:27;;;;;;;9.20;8.50;;;;;19.40;99495.00;;;;2055977;28;20266;-88
2023/03/06 03:53:27;;;;;;;8.47;7.37;;;;;19.30;99506.00;;;;2056066;28;20262;-88
2023/03/06 03:54:28;;;;;;;8.67;7.97;;;;;19.40;99503.00;;;;2055802;28;20207;-88
2023/03/06 03:55:28;;;;;;;8.33;7.63;;;;;19.30;99510.00;;;;2056008;28;20258;-88
2023/03/06 03:56:28;;;;;;;7.93;7.23;;;;;19.40;99510.00;;;;2055972;28;20204;-88
2023/03/06 03:57:29;;;;;;;8.43;7.63;;;;;19.40;99505.00;;;;2056040;28;20704;-87
2023/03/06 03:58:29;;;;;;;8.43;7.63;;;;;19.40;99500.00;;;;2055566;28;20553;-87
2023/03/06 03:59:29;;;;;;;7.60;7.00;;;;;19.40;99511.00;;;;2055908;28;20308;-88
2023/03/06 04:00:30;;;;;;;7.60;6.90;;;;;19.40;99504.00;;;;2055895;28;20203;-88
2023/03/06 04:01:30;;;;;;;8.67;7.87;;;;;19.40;99503.00;;;;2056043;28;20207;-89
2023/03/06 04:02:30;;;;;;;8.20;7.50;;;;;19.30;99498.00;;;;2055850;28;20236;-87
2023/03/06 04:03:31;;;;;;;8.10;7.40;;;;;19.30;99501.00;;;;2056050;28;20204;-89
2023/03/06 04:04:31;;;;;;;8.13;7.33;;;;;19.30;99505.00;;;;2055994;28;20709;-89
2023/03/06 04:05:32;;;;;;;8.00;7.30;;;;;19.30;99515.00;;;;2055891;28;20363;-87
2023/03/06 04:06:33;;;;;;;8.27;7.57;;;;;19.30;99503.00;;;;2055965;28;20255;-87
2023/03/06 04:07:33;;;;;;;8.00;7.37;;;;;19.30;99501.00;;;;2055936;28;20517;-88
2023/03/06 04:08:33;;;;;;;7.27;6.60;;;;;19.30;99496.00;;;;2055704;28;20683;-88
2023/03/06 04:09:34;;;;;;;7.87;7.07;;;;;19.30;99501.00;;;;2055896;28;20714;-87
2023/03/06 04:10:35;;;;;;;7.03;6.43;;;;;19.30;99500.00;;;;2056002;28;20204;-88
2023/03/06 04:11:35;;;;;;;7.18;6.47;;;;;19.30;99490.00;;;;2055621;28;20203;-88
2023/03/06 04:12:36;;;;;;;7.23;6.53;;;;;19.30;99496.00;;;;2055928;28;20215;-88
2023/03/06 04:13:36;;;;;;;7.37;6.60;;;;;19.30;99503.00;;;;2055671;28;20228;-88
2023/03/06 04:14:36;;;;;;;7.30;5.93;;;;;19.30;99497.00;;;;2056028;28;20207;-88
2023/03/06 04:15:37;;;;;;;7.07;6.40;;;;;19.30;99499.00;;;;2055964;28;20229;-88
2023/03/06 04:16:37;;;;;;;6.40;5.90;;;;;19.30;99496.00;;;;2055648;28;20200;-86
2023/03/06 04:17:37;;;;;;;6.80;6.20;;;;;19.30;99500.00;;;;2056049;28;20211;-90
2023/03/06 04:18:37;;;;;;;6.53;5.97;;;;;19.30;99486.00;;;;2056055;28;20216;-89
2023/03/06 04:19:38;;;;;;;7.70;6.70;;;;;19.30;99488.00;;;;2056079;28;20218;-88
2023/03/06 04:20:38;;;;;;;6.33;5.80;;;;;19.30;99491.00;;;;2055726;28;20203;-87
2023/03/06 04:21:38;;;;;;;6.60;6.00;;;;;19.30;99492.00;;;;2055820;28;20598;-87
2023/03/06 04:22:39;;;;;;;6.33;5.73;;;;;19.30;99480.00;;;;2055465;28;20456;-86
2023/03/06 04:23:39;;;;;;;6.40;5.80;;;;;19.20;99485.00;;;;2055719;28;20223;-86
2023/03/06 04:24:40;;;;;;;5.90;5.40;;;;;19.30;99483.00;;;;2055818;28;20223;-85
2023/03/06 04:25:40;;;;;;;5.93;5.43;;;;;19.30;99482.00;;;;2055540;28;20208;-86
2023/03/06 04:26:40;;;;;;;6.30;5.70;;;;;19.30;99479.00;;;;2055646;28;20258;-88
2023/03/06 04:27:41;;;;;;;6.90;6.20;;;;;19.30;99474.00;;;;2055620;28;20397;-87
2023/03/06 04:28:41;;;;;;;5.70;5.20;;;;;19.30;99472.00;;;;2055627;28;20227;-88
2023/03/06 04:29:41;;;;;;;6.13;5.63;;;;;19.30;99477.00;;;;2055790;28;20219;-88
2023/03/06 04:30:42;;;;;;;10.23;5.40;;;;;19.20;99475.00;;;;2055908;28;20215;-87
2023/03/06 04:31:42;;;;;;;5.90;5.40;;;;;19.20;99474.00;;;;2055781;28;20216;-88
2023/03/06 04:32:42;;;;;;;5.77;5.27;;;;;19.20;99476.00;;;;2055732;28;20212;-87
2023/03/06 04:33:43;;;;;;;5.70;5.20;;;;;19.20;99472.00;;;;2053827;28;20224;-87
2023/03/06 04:34:43;;;;;;;6.07;5.43;;;;;19.30;99477.00;;;;2055056;28;20289;-88
2023/03/06 04:35:43;;;;;;;5.80;5.20;;;;;19.30;99474.00;;;;2055066;28;20219;-87
2023/03/06 04:36:44;;;;;;;5.20;4.70;;;;;19.20;99469.00;;;;2055773;28;20277;-86
2023/03/06 04:37:44;;;;;;;7.47;5.87;;;;;19.20;99467.00;;;;2054957;28;20266;-87
2023/03/06 04:38:44;;;;;;;5.37;4.90;;;;;19.20;99470.00;;;;2054629;28;20212;-85
2023/03/06 04:39:45;;;;;;;5.97;5.47;;;;;19.20;99463.00;;;;2055458;28;20215;-86
2023/03/06 04:40:45;;;;;;;5.30;4.80;;;;;19.20;99465.00;;;;2055566;28;20215;-86
2023/03/06 04:41:45;;;;;;;5.57;5.17;;;;;19.20;99463.00;;;;2055574;28;20250;-86
2023/03/06 04:42:46;;;;;;;6.53;5.93;;;;;19.20;99465.00;;;;2055658;28;20223;-88
2023/03/06 04:43:46;;;;;;;6.03;5.53;;;;;19.20;99465.00;;;;2055991;28;21004;-88
2023/03/06 04:44:47;;;;;;;6.17;5.57;;;;;19.20;99461.00;;;;2055709;28;20253;-88
2023/03/06 04:45:47;;;;;;;7.20;6.50;;;;;19.10;99461.00;;;;2055778;28;20223;-86
2023/03/06 04:46:47;;;;;;;8.00;5.20;;;;;19.20;99459.00;;;;2055965;28;20243;-92
2023/03/06 04:47:48;;;;;;;8.93;6.00;;;;;19.20;99450.00;;;;2055998;28;20219;-87
2023/03/06 04:48:48;;;;;;;7.63;6.77;;;;;19.30;99449.00;;;;2055816;28;20589;-80
2023/03/06 04:49:48;;;;;;;6.47;5.87;;;;;19.30;99453.00;;;;2056242;28;20211;-87
2023/03/06 04:50:49;;;;;;;6.80;6.20;;;;;19.30;99459.00;;;;2055973;28;20366;-89
2023/03/06 04:51:49;;;;;;;6.27;5.20;;;;;19.30;99444.00;;;;2055132;28;20218;-83
2023/03/06 04:52:50;;;;;;;6.73;5.33;;;;;19.30;99436.00;;;;2055301;28;20851;-82
2023/03/06 04:53:51;;;;;;;6.50;6.00;;;;;19.30;99454.00;;;;2054634;28;20655;-81
2023/03/06 04:54:51;;;;;;;6.50;5.80;;;;;19.30;99449.00;;;;2054935;28;21029;-80
2023/03/06 04:55:51;;;;;;;6.97;6.37;;;;;19.30;99451.00;;;;2054467;28;20459;-81
2023/03/06 04:56:52;;;;;;;6.93;6.30;;;;;19.30;99445.00;;;;2055378;28;20222;-83
2023/03/06 04:57:52;;;;;;;6.37;5.77;;;;;19.30;99448.00;;;;2055234;28;20224;-82
2023/03/06 04:58:52;;;;;;;6.97;6.37;;;;;19.30;99444.00;;;;2055105;28;20219;-78
2023/03/06 04:59:53;;;;;;;7.37;6.63;;;;;19.30;99448.00;;;;2055466;28;20243;-79
2023/03/06 05:00:53;;;;;;;8.50;6.60;;;;;19.30;99442.00;;;;2055408;28;20220;-84
2023/03/06 05:01:53;;;;;;;8.60;6.93;;;;;19.30;99442.00;;;;2054612;28;20220;-90
2023/03/06 05:02:54;;;;;;;6.77;6.17;;;;;19.30;99445.00;;;;2054484;28;20258;-82
2023/03/06 05:03:54;;;;;;;7.50;6.70;;;;;19.30;99434.00;;;;2055553;28;20768;-78
2023/03/06 05:04:54;;;;;;;8.03;7.30;;;;;19.30;99438.00;;;;2055510;28;20219;-85
2023/03/06 05:05:55;;;;;;;8.93;7.47;;;;;19.30;99442.00;;;;2055050;28;20227;-84